Time;durP1;ratioP1;P1;durP2;ratioP2;P2;SDS_P1;SDS_P2;PMS_P1;PMS_P2;Temp;Humidity;BMP_temperature;BMP_pressure;BME280_temperature;BME280_humidity;BME280_pressure;Samples;Min_cycle;Max_cycle;Signal;HPM_P1;HPM_P2
2022/01/01 00:02:20;;;;;;;96.90;65.70;;;;;;;11.56;85.84;102247.69;5049547;28;20070;-86
2022/01/01 00:04:47;;;;;;;108.90;72.43;;;;;;;11.56;85.95;102246.81;5050575;28;20033;-86
2022/01/01 00:07:13;;;;;;;109.82;72.75;;;;;;;11.56;86.17;102245.09;5050463;28;20020;-86
2022/01/01 00:09:38;;;;;;;110.43;73.78;;;;;;;11.56;86.21;102245.09;5049228;28;20033;-86
2022/01/01 00:12:05;;;;;;;108.43;69.10;;;;;;;11.55;86.28;102248.56;5049688;28;20500;-86
2022/01/01 00:14:31;;;;;;;96.68;61.60;;;;;;;11.55;86.14;102248.56;5049519;28;20053;-86
2022/01/01 00:16:56;;;;;;;80.82;54.40;;;;;;;11.56;86.33;102247.69;5055948;28;20140;-86
2022/01/01 00:19:22;;;;;;;83.78;50.65;;;;;;;11.58;86.45;102251.16;5051219;28;20170;-86
2022/01/01 00:21:47;;;;;;;69.05;42.78;;;;;;;11.57;86.43;102259.84;5053508;28;20484;-86
2022/01/01 00:24:12;;;;;;;61.95;37.80;;;;;;;11.58;86.27;102251.16;5040064;28;20041;-86
2022/01/01 00:26:38;;;;;;;52.97;31.85;;;;;;;11.59;86.25;102247.69;5055307;28;20479;-86
2022/01/01 00:29:03;;;;;;;56.83;32.33;;;;;;;11.59;86.11;102257.22;5054665;28;20036;-86
2022/01/01 00:31:29;;;;;;;45.10;26.10;;;;;;;11.60;86.36;102259.84;5056212;28;20549;-86
2022/01/01 00:33:55;;;;;;;45.70;22.60;;;;;;;11.62;86.14;102263.28;5062373;28;20103;-86
2022/01/01 00:36:20;;;;;;;40.40;21.55;;;;;;;11.62;86.29;102258.06;5054556;28;20021;-86
2022/01/01 00:38:45;;;;;;;40.15;19.52;;;;;;;11.64;86.13;102255.47;5054433;28;20100;-86
2022/01/01 00:41:11;;;;;;;34.40;19.13;;;;;;;11.63;86.33;102251.97;5053899;28;20032;-86
2022/01/01 00:43:36;;;;;;;41.38;19.42;;;;;;;11.65;86.20;102257.19;5054451;28;20372;-86
2022/01/01 00:46:01;;;;;;;39.10;18.85;;;;;;;11.65;86.13;102258.03;5054495;28;20497;-86
2022/01/01 00:48:27;;;;;;;45.88;21.23;;;;;;;11.66;86.05;102253.72;5054677;28;20417;-86
2022/01/01 00:50:52;;;;;;;38.83;19.52;;;;;;;11.66;85.94;102246.75;5053022;28;20017;-86
2022/01/01 00:53:17;;;;;;;40.97;19.48;;;;;;;11.66;85.86;102246.75;5054099;28;20047;-86
2022/01/01 00:55:42;;;;;;;40.85;18.27;;;;;;;11.67;85.75;102253.69;5055214;28;20491;-86
2022/01/01 00:58:08;;;;;;;42.85;18.92;;;;;;;11.67;85.93;102253.69;5057399;28;20017;-86
2022/01/01 01:00:34;;;;;;;38.05;16.90;;;;;;;11.68;85.60;102247.59;5052671;28;20037;-86
2022/01/01 01:02:59;;;;;;;37.50;16.45;;;;;;;11.67;85.82;102250.22;5052787;28;20063;-86
2022/01/01 01:05:25;;;;;;;36.47;16.75;;;;;;;11.66;85.94;102254.56;5053298;28;20024;-86
2022/01/01 01:07:50;;;;;;;41.58;16.95;;;;;;;11.67;86.07;102260.66;5064383;28;20021;-86
2022/01/01 01:10:16;;;;;;;35.05;15.73;;;;;;;11.68;85.75;102257.16;5053492;28;20036;-86
2022/01/01 01:12:47;;;;;;;32.20;14.70;;;;;;;11.68;85.74;102267.59;5053671;28;20121;-86
2022/01/01 01:15:19;;;;;;;36.50;14.98;;;;;;;11.66;85.88;102265.00;5053238;28;20033;-86
2022/01/01 01:17:47;;;;;;;34.28;14.75;;;;;;;11.67;85.36;102269.31;5053654;28;20108;-86
2022/01/01 01:20:13;;;;;;;35.78;15.23;;;;;;;11.68;85.61;102265.00;5052557;28;20032;-86
2022/01/01 01:22:38;;;;;;;34.75;15.52;;;;;;;11.66;85.68;102265.00;5053186;28;20082;-87
2022/01/01 01:25:04;;;;;;;33.88;14.63;;;;;;;11.65;85.54;102265.84;5052973;28;20044;-86
2022/01/01 01:27:30;;;;;;;36.63;14.35;;;;;;;11.64;85.74;102271.09;5056474;28;20028;-86
2022/01/01 01:29:58;;;;;;;36.08;14.32;;;;;;;11.64;85.53;102278.91;5051642;28;20021;-86
2022/01/01 01:32:23;;;;;;;31.73;13.57;;;;;;;11.63;85.59;102269.38;5052229;28;20024;-86
2022/01/01 01:34:48;;;;;;;39.42;13.77;;;;;;;11.62;85.65;102273.69;5053556;28;20030;-86
2022/01/01 01:37:14;;;;;;;41.20;14.90;;;;;;;11.64;85.43;102277.16;5052406;28;20044;-86
2022/01/01 01:39:39;;;;;;;35.75;13.63;;;;;;;11.64;85.36;102276.31;5054569;28;20064;-86
2022/01/01 01:42:04;;;;;;;31.98;13.52;;;;;;;11.63;85.50;102272.81;5053242;28;20040;-86
2022/01/01 01:44:33;;;;;;;36.65;13.20;;;;;;;11.63;85.76;102278.03;5053447;28;20116;-86
2022/01/01 01:47:02;;;;;;;36.88;13.93;;;;;;;11.63;85.76;102271.97;5052445;28;20060;-86
2022/01/01 01:49:28;;;;;;;34.58;12.90;;;;;;;11.61;85.73;102274.59;5035695;28;20129;-87
2022/01/01 01:51:54;;;;;;;32.45;12.55;;;;;;;11.61;85.89;102281.53;5054154;28;20025;-86
2022/01/01 01:54:20;;;;;;;31.63;12.60;;;;;;;11.61;86.04;102289.38;5052254;28;20032;-86
2022/01/01 01:56:46;;;;;;;31.52;13.43;;;;;;;11.60;85.63;102291.13;5052749;28;20025;-86
2022/01/01 01:59:14;;;;;;;31.50;12.57;;;;;;;11.60;85.67;102290.22;5053162;28;20115;-86
2022/01/01 02:01:40;;;;;;;30.10;12.57;;;;;;;11.60;85.85;102293.72;5052974;28;20033;-86
2022/01/01 02:04:05;;;;;;;36.67;13.07;;;;;;;11.59;85.76;102299.81;5053178;28;20021;-86
2022/01/01 02:06:32;;;;;;;28.40;12.60;;;;;;;11.58;86.02;102300.69;5052772;28;20039;-86
2022/01/01 02:08:57;;;;;;;35.22;12.90;;;;;;;11.59;86.24;102299.81;5052612;28;20033;-86
2022/01/01 02:11:24;;;;;;;34.05;13.07;;;;;;;11.59;86.09;102292.00;5052383;28;20032;-86
2022/01/01 02:18:50;;;;;;;27.63;11.50;;;;;;;11.58;86.43;102287.66;5052700;28;20062;-86
2022/01/01 02:21:16;;;;;;;30.67;11.77;;;;;;;11.57;86.53;102291.13;5052200;28;20089;-86
2022/01/01 02:23:43;;;;;;;32.22;11.75;;;;;;;11.57;86.50;102288.53;5052219;28;20021;-86
2022/01/01 02:26:12;;;;;;;28.58;10.95;;;;;;;11.57;86.64;102285.91;5034544;28;20255;-86
2022/01/01 02:28:42;;;;;;;30.10;11.40;;;;;;;11.56;86.62;102286.78;5034425;28;20036;-86
2022/01/01 02:31:08;;;;;;;28.15;11.23;;;;;;;11.56;86.71;102278.97;5052172;28;20025;-86
2022/01/01 02:33:34;;;;;;;27.58;11.75;;;;;;;11.55;86.74;102266.81;5052102;28;20028;-86
2022/01/01 02:35:59;;;;;;;28.70;10.95;;;;;;;11.55;86.85;102272.03;5052009;28;20558;-86
2022/01/01 02:38:24;;;;;;;28.45;11.35;;;;;;;11.56;86.95;102275.47;5052372;28;20079;-86
2022/01/01 02:40:50;;;;;;;32.83;11.68;;;;;;;11.56;86.85;102281.56;5051478;28;20092;-86
2022/01/01 02:43:17;;;;;;;26.70;11.02;;;;;;;11.56;86.90;102276.38;5051774;28;20029;-86
2022/01/01 02:45:42;;;;;;;25.27;10.88;;;;;;;11.57;86.83;102280.72;5052192;28;20499;-86
2022/01/01 02:48:07;;;;;;;28.10;11.18;;;;;;;11.57;86.82;102279.81;5050658;28;20037;-86
2022/01/01 02:50:33;;;;;;;28.73;11.88;;;;;;;11.56;86.82;102276.38;5050609;28;20048;-86
2022/01/01 02:52:58;;;;;;;25.77;10.95;;;;;;;11.58;86.71;102281.56;5050163;28;20033;-85
2022/01/01 02:55:23;;;;;;;25.58;11.43;;;;;;;11.57;87.11;102280.72;5057142;28;20059;-86
2022/01/01 02:57:48;;;;;;;27.98;12.00;;;;;;;11.57;86.60;102282.44;5051177;28;20040;-86
2022/01/01 03:00:14;;;;;;;25.48;12.07;;;;;;;11.57;86.84;102266.78;5052186;28;20468;-86
2022/01/01 03:02:40;;;;;;;27.38;12.18;;;;;;;11.56;86.65;102263.34;5032440;28;20053;-86
2022/01/01 03:05:06;;;;;;;30.88;12.55;;;;;;;11.56;86.70;102258.13;5057778;28;20087;-86
2022/01/01 03:07:34;;;;;;;29.00;12.73;;;;;;;11.56;86.69;102252.91;5052288;28;20050;-86
2022/01/01 03:09:59;;;;;;;28.95;12.13;;;;;;;11.56;86.64;102255.50;5050973;28;20074;-86
2022/01/01 03:12:25;;;;;;;24.63;11.80;;;;;;;11.57;86.55;102254.63;5050537;28;20036;-86
2022/01/01 03:14:50;;;;;;;26.58;11.85;;;;;;;11.57;86.55;102253.75;5052100;28;20425;-86
2022/01/01 03:17:15;;;;;;;29.13;12.93;;;;;;;11.56;86.38;102255.50;5051420;28;20021;-86
2022/01/01 03:19:41;;;;;;;25.13;11.38;;;;;;;11.58;86.17;102256.38;5051262;28;20035;-86
2022/01/01 03:22:06;;;;;;;25.75;12.02;;;;;;;11.58;86.29;102264.19;5050509;28;20043;-86
2022/01/01 03:24:32;;;;;;;26.13;11.88;;;;;;;11.59;86.20;102259.84;5051583;28;20037;-86
2022/01/01 03:26:57;;;;;;;27.98;12.07;;;;;;;11.58;85.89;102256.38;5051489;28;20025;-86
2022/01/01 03:29:22;;;;;;;24.20;11.38;;;;;;;11.60;86.05;102259.84;5050942;28;20396;-86
2022/01/01 03:31:48;;;;;;;27.33;11.27;;;;;;;11.60;86.09;102264.16;5054254;28;20016;-86
2022/01/01 03:34:13;;;;;;;27.35;11.52;;;;;;;11.61;86.16;102252.88;5053029;28;20256;-87
2022/01/01 03:36:39;;;;;;;24.77;11.32;;;;;;;11.60;85.99;102254.63;5051088;28;20036;-86
2022/01/01 03:39:06;;;;;;;23.02;10.77;;;;;;;11.61;86.06;102252.88;5051044;28;20029;-86
2022/01/01 03:41:31;;;;;;;25.98;10.70;;;;;;;11.61;85.77;102251.16;5050752;28;20449;-86
2022/01/01 03:43:56;;;;;;;22.70;10.75;;;;;;;11.60;85.73;102249.41;5050864;28;20179;-86
2022/01/01 03:46:22;;;;;;;23.42;10.57;;;;;;;11.61;85.86;102251.16;5051279;28;20472;-86
2022/01/01 03:48:47;;;;;;;23.63;10.93;;;;;;;11.62;85.76;102247.63;5050894;28;20082;-86
2022/01/01 03:51:12;;;;;;;25.60;10.50;;;;;;;11.62;85.62;102241.56;5050912;28;20032;-86
2022/01/01 03:53:38;;;;;;;23.40;10.95;;;;;;;11.62;85.54;102236.34;5050961;28;20013;-86
2022/01/01 03:56:03;;;;;;;25.73;10.90;;;;;;;11.61;85.73;102240.72;5055141;28;20025;-86
2022/01/01 03:58:28;;;;;;;24.15;11.20;;;;;;;11.62;85.62;102236.34;5055786;28;20024;-86
2022/01/01 04:00:55;;;;;;;23.00;10.50;;;;;;;11.62;85.67;102231.13;5054684;28;20033;-86
2022/01/01 04:03:20;;;;;;;23.23;10.70;;;;;;;11.61;85.38;102242.44;5037620;28;20020;-86
2022/01/01 04:05:46;;;;;;;24.80;10.07;;;;;;;11.60;85.31;102239.00;5055267;28;20035;-86
2022/01/01 04:08:12;;;;;;;22.02;10.48;;;;;;;11.60;85.49;102249.41;5055163;28;20028;-86
2022/01/01 04:10:39;;;;;;;22.70;10.02;;;;;;;11.61;85.33;102247.66;5054583;28;20115;-86
2022/01/01 04:13:06;;;;;;;22.40;10.05;;;;;;;11.59;85.60;102242.47;5037537;28;20446;-85
2022/01/01 04:15:33;;;;;;;22.70;10.23;;;;;;;11.59;85.39;102246.81;5056041;28;20464;-86
2022/01/01 04:18:02;;;;;;;23.48;9.35;;;;;;;11.59;85.08;102246.81;5043392;28;20494;-86
2022/01/01 04:20:28;;;;;;;20.08;9.23;;;;;;;11.58;85.45;102237.25;5059637;28;20112;-86
2022/01/01 04:22:55;;;;;;;24.17;9.45;;;;;;;11.57;85.27;102241.63;5054864;28;20124;-86
2022/01/01 04:25:22;;;;;;;23.48;9.38;;;;;;;11.58;85.04;102250.28;5053388;28;20049;-86
2022/01/01 04:27:48;;;;;;;23.00;10.00;;;;;;;11.58;84.99;102247.66;5054071;28;20067;-87
2022/01/01 04:30:14;;;;;;;20.30;9.05;;;;;;;11.58;85.04;102239.84;5054099;28;20024;-86
2022/01/01 04:32:39;;;;;;;16.25;8.25;;;;;;;11.59;84.69;102241.59;5057397;28;20031;-86
2022/01/01 04:35:05;;;;;;;21.20;8.77;;;;;;;11.58;84.80;102240.75;5054440;28;20020;-86
2022/01/01 04:37:31;;;;;;;17.25;7.93;;;;;;;11.58;84.84;102234.63;5054150;28;20020;-86
2022/01/01 04:39:59;;;;;;;18.52;8.30;;;;;;;11.57;84.84;102243.34;5053778;28;20381;-86
2022/01/01 04:42:25;;;;;;;16.52;8.35;;;;;;;11.56;84.59;102239.00;5036375;28;20135;-86
2022/01/01 04:44:50;;;;;;;24.92;8.57;;;;;;;11.56;84.63;102242.47;5053868;28;20090;-86
2022/01/01 04:47:16;;;;;;;19.83;8.20;;;;;;;11.57;84.58;102248.53;5054740;28;20469;-86
2022/01/01 04:49:41;;;;;;;20.02;7.85;;;;;;;11.56;84.58;102247.69;5054071;28;20025;-86
2022/01/01 04:52:06;;;;;;;18.58;7.97;;;;;;;11.55;84.54;102245.97;5053955;28;20024;-86
2022/01/01 04:54:33;;;;;;;20.42;7.97;;;;;;;11.57;84.37;102245.94;5054868;28;20448;-86
2022/01/01 04:56:59;;;;;;;17.95;7.90;;;;;;;11.56;84.23;102245.09;5053442;28;20388;-86
2022/01/01 04:59:24;;;;;;;14.88;7.43;;;;;;;11.56;84.22;102252.03;5036574;28;20041;-86
2022/01/01 05:01:49;;;;;;;16.40;7.55;;;;;;;11.56;84.23;102252.91;5053693;28;20031;-86
2022/01/01 05:04:15;;;;;;;18.58;7.55;;;;;;;11.56;84.18;102260.72;5053484;28;20029;-86
2022/01/01 05:06:41;;;;;;;18.30;8.05;;;;;;;11.57;84.14;102256.38;5053474;28;20368;-86
2022/01/01 05:09:07;;;;;;;18.92;7.70;;;;;;;11.56;84.04;102249.41;5052400;28;20017;-86
2022/01/01 05:11:32;;;;;;;20.40;7.88;;;;;;;11.57;83.85;102258.97;5054737;28;20028;-86
2022/01/01 05:13:58;;;;;;;21.02;8.02;;;;;;;11.57;83.86;102257.25;5054518;28;20376;-86
2022/01/01 05:16:23;;;;;;;17.65;8.07;;;;;;;11.57;83.74;102252.03;5053358;28;20040;-86
2022/01/01 05:18:48;;;;;;;16.35;7.50;;;;;;;11.57;83.75;102254.63;5058591;28;20025;-86
2022/01/01 05:21:14;;;;;;;17.85;7.25;;;;;;;11.59;83.52;102260.72;5052922;28;20461;-87
2022/01/01 05:23:39;;;;;;;21.92;7.72;;;;;;;11.58;83.34;102266.81;5052793;28;20013;-86
2022/01/01 05:26:04;;;;;;;17.38;7.28;;;;;;;11.57;83.63;102267.69;5056834;28;20037;-86
2022/01/01 05:28:30;;;;;;;16.58;7.30;;;;;;;11.57;83.56;102275.50;5069533;28;20051;-86
2022/01/01 05:30:55;;;;;;;20.92;7.10;;;;;;;11.56;83.60;102265.94;5052988;28;20071;-86
2022/01/01 05:33:20;;;;;;;15.85;7.20;;;;;;;11.57;83.44;102258.97;5055001;28;20071;-86
2022/01/01 05:35:46;;;;;;;16.17;6.88;;;;;;;11.57;83.46;102267.69;5053953;28;20032;-86
2022/01/01 05:38:11;;;;;;;19.58;7.18;;;;;;;11.56;83.51;102263.34;5052971;28;20021;-87
2022/01/01 05:40:36;;;;;;;15.52;6.80;;;;;;;11.57;83.31;102259.84;5052440;28;20384;-86
2022/01/01 05:43:02;;;;;;;14.52;7.10;;;;;;;11.57;83.40;102264.19;5053555;28;20017;-86
2022/01/01 05:45:27;;;;;;;16.08;7.03;;;;;;;11.56;83.12;102258.13;5053887;28;20091;-86
2022/01/01 05:47:52;;;;;;;13.00;6.85;;;;;;;11.54;83.52;102255.50;5055716;28;20107;-87
2022/01/01 05:50:20;;;;;;;16.98;6.93;;;;;;;11.57;83.08;102267.69;5053448;28;20105;-86
2022/01/01 05:52:45;;;;;;;17.67;6.95;;;;;;;11.55;83.34;102269.41;5052716;28;20028;-86
2022/01/01 05:55:11;;;;;;;16.05;7.30;;;;;;;11.55;83.20;102277.25;5053536;28;20384;-86
2022/01/01 05:57:36;;;;;;;20.35;7.43;;;;;;;11.52;83.35;102270.31;5053805;28;20496;-86
2022/01/01 06:00:06;;;;;;;15.38;6.47;;;;;;;11.52;83.29;102262.50;5052808;28;20074;-86
2022/01/01 06:02:31;;;;;;;16.95;6.68;;;;;;;11.52;83.04;102262.50;5051909;28;20087;-86
2022/01/01 06:04:56;;;;;;;17.10;7.10;;;;;;;11.51;83.14;102265.09;5052668;28;20044;-86
2022/01/01 06:07:22;;;;;;;12.93;6.63;;;;;;;11.51;83.17;102259.88;5053042;28;20029;-86
2022/01/01 06:09:49;;;;;;;19.27;6.65;;;;;;;11.48;83.11;102255.56;5052937;28;20053;-86
2022/01/01 06:12:15;;;;;;;16.55;6.95;;;;;;;11.48;83.26;102257.28;5052197;28;20027;-86
2022/01/01 06:14:40;;;;;;;15.50;6.63;;;;;;;11.47;82.85;102252.97;5052546;28;20029;-86
2022/01/01 06:17:05;;;;;;;19.42;6.65;;;;;;;11.45;82.97;102244.28;5053005;28;20025;-86
2022/01/01 06:19:30;;;;;;;16.02;6.55;;;;;;;11.43;83.04;102240.84;5052015;28;20035;-86
2022/01/01 06:21:56;;;;;;;15.05;6.18;;;;;;;11.41;82.13;102238.22;5053978;28;20016;-86
2022/01/01 06:24:21;;;;;;;13.85;6.10;;;;;;;11.38;82.77;102236.53;5056789;28;20400;-86
2022/01/01 06:26:46;;;;;;;16.33;6.72;;;;;;;11.37;82.75;102241.72;5053550;28;20060;-86
2022/01/01 06:29:11;;;;;;;13.85;6.40;;;;;;;11.35;82.71;102246.09;5057919;28;20051;-86
2022/01/01 06:31:37;;;;;;;17.55;6.63;;;;;;;11.36;82.76;102251.31;5051642;28;20033;-86
2022/01/01 06:34:02;;;;;;;13.40;5.53;;;;;;;11.35;82.43;102249.56;5053915;28;20514;-86
2022/01/01 06:36:28;;;;;;;13.15;5.90;;;;;;;11.35;82.55;102254.78;5054510;28;20025;-86
2022/01/01 06:38:53;;;;;;;14.10;5.60;;;;;;;11.36;82.37;102260.84;5052833;28;20081;-86
2022/01/01 06:41:19;;;;;;;16.40;5.53;;;;;;;11.36;82.51;102266.94;5055034;28;20494;-86
2022/01/01 06:43:44;;;;;;;14.82;6.22;;;;;;;11.34;82.40;102265.22;5056593;28;20057;-86
2022/01/01 06:46:10;;;;;;;13.15;5.72;;;;;;;11.32;82.29;102259.16;5060475;28;20032;-86
2022/01/01 06:48:35;;;;;;;15.73;5.78;;;;;;;11.27;82.27;102272.22;5052781;28;20499;-86
2022/01/01 06:51:01;;;;;;;15.25;5.65;;;;;;;11.22;82.69;102274.81;5049945;28;20044;-86
2022/01/01 06:53:26;;;;;;;15.18;5.53;;;;;;;11.20;82.20;102275.72;5052882;28;20029;-86
2022/01/01 06:55:52;;;;;;;17.65;5.85;;;;;;;11.17;82.20;102265.31;5052581;28;20478;-86
2022/01/01 06:58:17;;;;;;;13.60;5.68;;;;;;;11.12;82.21;102272.25;5052917;28;20025;-86
2022/01/01 07:00:43;;;;;;;16.50;6.18;;;;;;;11.08;82.37;102272.31;5051582;28;20349;-86
2022/01/01 07:03:08;;;;;;;16.55;6.00;;;;;;;11.07;82.70;102273.19;5051303;28;20021;-87
2022/01/01 07:05:33;;;;;;;14.98;5.85;;;;;;;11.06;82.85;102268.84;5051942;28;20472;-86
2022/01/01 07:07:59;;;;;;;17.88;6.10;;;;;;;11.05;82.50;102272.31;5051928;28;21269;-86
2022/01/01 07:10:25;;;;;;;15.73;5.70;;;;;;;11.05;82.71;102274.03;5051237;28;20020;-86
2022/01/01 07:12:50;;;;;;;11.77;5.38;;;;;;;11.05;82.64;102284.44;5055747;28;20701;-86
2022/01/01 07:15:16;;;;;;;14.70;6.38;;;;;;;11.02;82.84;102280.13;5050624;28;20106;-86
2022/01/01 07:17:42;;;;;;;15.77;6.25;;;;;;;11.03;82.70;102288.78;5050379;28;20032;-86
2022/01/01 07:20:08;;;;;;;15.82;5.78;;;;;;;11.01;82.67;102296.63;5033536;28;20043;-86
2022/01/01 07:22:44;;;;;;;15.85;5.65;;;;;;;11.01;82.86;102294.03;5053674;28;20042;-86
2022/01/01 07:25:11;;;;;;;14.32;5.45;;;;;;;11.03;82.83;102299.22;5051242;28;20094;-86
2022/01/01 07:27:37;;;;;;;15.50;5.65;;;;;;;11.02;82.91;102295.75;5052802;28;20036;-86
2022/01/01 07:30:04;;;;;;;13.95;5.32;;;;;;;11.03;82.92;102297.50;5051141;28;20099;-86
2022/01/01 07:32:29;;;;;;;17.35;5.70;;;;;;;11.04;82.77;102291.41;5058765;28;20476;-86
2022/01/01 07:34:55;;;;;;;17.50;5.60;;;;;;;11.04;82.84;102286.22;5051507;28;20036;-86
2022/01/01 07:37:20;;;;;;;14.52;5.22;;;;;;;11.03;82.79;102281.88;5051439;28;20025;-86
2022/01/01 07:39:46;;;;;;;17.92;5.30;;;;;;;11.05;82.46;102287.06;5050048;28;20700;-86
2022/01/01 07:42:12;;;;;;;12.23;5.13;;;;;;;11.07;82.23;102296.63;5050544;28;20032;-86
2022/01/01 07:44:38;;;;;;;15.02;5.40;;;;;;;11.07;82.30;102301.81;5039639;28;20053;-86
2022/01/01 07:47:04;;;;;;;13.52;4.93;;;;;;;11.08;82.31;102292.25;5051052;28;20060;-86
2022/01/01 07:49:29;;;;;;;14.55;5.63;;;;;;;11.08;82.31;102293.13;5058318;28;20478;-86
2022/01/01 07:51:55;;;;;;;15.43;5.40;;;;;;;11.10;81.96;102294.88;5050031;28;20061;-86
2022/01/01 07:54:20;;;;;;;13.63;5.05;;;;;;;11.10;82.28;102300.94;5050557;28;20083;-86
2022/01/01 07:56:45;;;;;;;12.88;4.90;;;;;;;11.09;82.41;102304.41;5054645;28;20082;-86
2022/01/01 07:59:10;;;;;;;14.35;5.60;;;;;;;11.10;82.38;102300.09;5054032;28;20483;-86
2022/01/01 08:01:36;;;;;;;14.18;5.25;;;;;;;11.10;82.76;102306.16;5051397;28;20053;-86
2022/01/01 08:04:02;;;;;;;15.27;5.28;;;;;;;11.11;82.20;102307.88;5058831;28;20451;-86
2022/01/01 08:06:30;;;;;;;13.05;5.45;;;;;;;11.10;82.37;102311.34;5064145;28;20028;-86
2022/01/01 08:08:56;;;;;;;12.38;4.88;;;;;;;11.11;82.05;102318.28;5049694;28;20107;-86
2022/01/01 08:11:21;;;;;;;14.55;5.13;;;;;;;11.11;82.08;102317.41;5050985;28;20151;-86
2022/01/01 08:13:47;;;;;;;14.48;5.28;;;;;;;11.13;82.15;102323.47;5037917;28;20044;-86
2022/01/01 08:16:12;;;;;;;16.67;5.55;;;;;;;11.12;82.04;102321.75;5054582;28;20058;-86
2022/01/01 08:18:37;;;;;;;12.73;5.13;;;;;;;11.12;81.90;102320.03;5050746;28;20033;-86
2022/01/01 08:21:03;;;;;;;10.85;4.93;;;;;;;11.13;81.57;102311.34;5052159;28;20032;-86
2022/01/01 08:23:28;;;;;;;12.95;5.60;;;;;;;11.14;81.53;102317.41;5059439;28;20032;-86
2022/01/01 08:25:56;;;;;;;11.98;4.78;;;;;;;11.14;81.60;102310.47;5057111;28;20051;-86
2022/01/01 08:28:21;;;;;;;10.88;4.70;;;;;;;11.15;81.52;102303.50;5050700;28;20028;-86
2022/01/01 08:30:46;;;;;;;13.80;5.20;;;;;;;11.17;81.44;102313.06;5050843;28;20309;-86
2022/01/01 08:33:12;;;;;;;17.05;5.18;;;;;;;11.17;81.71;102312.19;5049853;28;22076;-86
2022/01/01 08:35:37;;;;;;;13.20;5.07;;;;;;;11.17;81.52;102306.97;5059538;28;20069;-87
2022/01/01 08:38:04;;;;;;;12.05;5.00;;;;;;;11.18;80.90;102303.50;5053232;28;20108;-86
2022/01/01 08:40:30;;;;;;;11.18;4.95;;;;;;;11.17;81.29;102307.84;5054117;28;20020;-86
2022/01/01 08:42:56;;;;;;;11.10;4.65;;;;;;;11.18;81.39;102309.59;5054143;28;20029;-86
2022/01/01 08:45:22;;;;;;;14.43;5.13;;;;;;;11.18;81.27;102300.91;5054840;28;20024;-86
2022/01/01 08:47:47;;;;;;;12.80;5.35;;;;;;;11.20;81.15;102312.19;5055732;28;20464;-86
2022/01/01 08:50:13;;;;;;;14.13;5.15;;;;;;;11.20;81.34;102312.19;5055154;28;20021;-86
2022/01/01 08:52:39;;;;;;;12.57;5.05;;;;;;;11.21;81.34;102309.56;5055184;28;20510;-86
2022/01/01 08:55:05;;;;;;;13.48;4.85;;;;;;;11.22;81.22;102307.84;5054553;28;20033;-86
2022/01/01 08:57:32;;;;;;;14.60;5.32;;;;;;;11.21;81.40;102314.75;5054784;28;20039;-86
2022/01/01 08:59:58;;;;;;;12.75;5.20;;;;;;;11.22;81.13;102315.66;5041844;28;20017;-86
2022/01/01 09:02:23;;;;;;;12.45;5.00;;;;;;;11.23;81.14;102312.16;5060144;28;20029;-86
2022/01/01 09:04:48;;;;;;;11.80;4.88;;;;;;;11.22;81.46;102315.66;5052757;28;20041;-86
2022/01/01 09:07:14;;;;;;;12.65;5.18;;;;;;;11.23;81.27;102317.38;5056843;28;20016;-86
2022/01/01 09:09:40;;;;;;;11.23;4.97;;;;;;;11.20;81.44;102309.56;5056179;28;20061;-86
2022/01/01 09:12:09;;;;;;;12.50;5.20;;;;;;;11.20;81.51;102305.22;5053276;28;20021;-87
2022/01/01 09:14:34;;;;;;;11.93;4.97;;;;;;;11.21;81.38;102300.88;5054206;28;20059;-86
2022/01/01 09:17:00;;;;;;;10.50;5.00;;;;;;;11.22;81.06;102311.28;5052919;28;20414;-86
2022/01/01 09:19:26;;;;;;;11.43;4.80;;;;;;;11.22;81.24;102310.44;5053248;28;20056;-86
2022/01/01 09:21:52;;;;;;;11.98;5.22;;;;;;;11.22;81.08;102305.22;5035104;28;20021;-86
2022/01/01 09:24:17;;;;;;;12.98;5.30;;;;;;;11.25;81.35;102307.81;5055495;28;20024;-86
2022/01/01 09:26:42;;;;;;;10.35;5.07;;;;;;;11.25;80.95;102302.63;5056350;28;20029;-86
2022/01/01 09:29:10;;;;;;;12.38;4.95;;;;;;;11.26;80.94;102306.94;5053070;28;20032;-87
2022/01/01 09:31:41;;;;;;;12.95;5.10;;;;;;;11.26;80.82;102306.94;5053239;28;20481;-86
2022/01/01 09:34:07;;;;;;;;;;;;;;;11.35;81.06;102314.72;5053255;28;20049;-86
2022/01/01 09:36:33;;;;;;;10.40;5.00;;;;;;;11.29;80.74;102312.13;5052158;28;19920;-86
2022/01/01 09:38:58;;;;;;;11.45;5.30;;;;;;;11.29;81.24;102306.06;5053579;28;20025;-86
2022/01/01 09:41:23;;;;;;;12.55;5.07;;;;;;;11.30;81.31;102302.59;5052105;28;20024;-86
2022/01/01 09:43:53;;;;;;;12.10;5.22;;;;;;;11.29;81.06;102299.09;5054096;28;20456;-86
2022/01/01 09:46:18;;;;;;;12.18;5.35;;;;;;;11.29;81.22;102291.28;5057573;28;20424;-86
2022/01/01 09:48:44;;;;;;;13.68;5.40;;;;;;;11.28;81.30;102299.97;5052962;28;20468;-86
2022/01/01 09:51:09;;;;;;;11.07;4.90;;;;;;;11.30;81.10;102302.59;5051499;28;20115;-86
2022/01/01 09:53:35;;;;;;;12.25;5.80;;;;;;;11.29;81.20;102301.69;5050586;28;20476;-86
2022/01/01 09:56:03;;;;;;;11.10;5.13;;;;;;;11.29;81.57;102301.69;5054002;28;20159;-87
2022/01/01 09:58:31;;;;;;;11.77;5.10;;;;;;;11.28;81.32;102297.34;5057048;28;20399;-86
2022/01/01 10:00:57;;;;;;;12.70;5.60;;;;;;;11.29;81.23;102291.28;5056492;28;20033;-86
2022/01/01 10:03:44;;;;;;;10.63;5.68;;;;;;;11.30;81.69;102293.00;5054780;28;20028;-86
2022/01/01 10:06:13;;;;;;;12.00;5.13;;;;;;;11.31;81.14;102305.16;5056158;28;20074;-86
2022/01/01 10:08:40;;;;;;;11.23;5.60;;;;;;;11.31;81.28;102299.09;5052558;28;20131;-85
2022/01/01 10:11:07;;;;;;;11.23;5.43;;;;;;;11.30;81.55;102293.00;5036731;28;20372;-86
2022/01/01 10:13:36;;;;;;;9.90;5.20;;;;;;;11.31;81.25;102292.13;5053377;28;20420;-85
2022/01/01 10:16:04;;;;;;;11.20;5.53;;;;;;;11.34;81.52;102286.91;5052946;28;20032;-86
2022/01/01 10:18:36;;;;;;;10.38;5.45;;;;;;;11.37;81.39;102283.41;5050242;28;20426;-86
2022/01/01 10:21:08;;;;;;;12.20;5.30;;;;;;;11.39;81.48;102271.25;5052249;28;20045;-86
2022/01/01 10:23:34;;;;;;;12.40;5.32;;;;;;;11.43;81.53;102261.69;5052648;28;20021;-86
2022/01/01 10:29:23;;;;;;;10.98;5.40;;;;;;;11.47;81.00;102247.75;5052271;28;20392;-86
2022/01/01 10:32:23;;;;;;;13.25;5.40;;;;;;;11.48;81.15;102252.97;5049244;28;20151;-86
2022/01/01 10:34:49;;;;;;;11.65;5.95;;;;;;;11.50;81.35;102242.50;5012397;28;20136;-86
2022/01/01 10:37:15;;;;;;;12.38;5.80;;;;;;;11.53;81.19;102247.72;5044573;28;20092;-86
2022/01/01 10:39:54;;;;;;;11.75;5.68;;;;;;;11.55;81.25;102245.97;5045158;28;20036;-86
2022/01/01 10:42:21;;;;;;;11.05;5.68;;;;;;;11.56;81.36;102232.06;5044836;28;20082;-85
2022/01/01 10:44:49;;;;;;;10.88;5.32;;;;;;;11.58;81.08;102235.53;5045580;28;20044;-88
2022/01/01 10:47:20;;;;;;;10.55;5.28;;;;;;;11.62;80.86;102237.22;5044032;28;20025;-87
2022/01/01 10:52:16;;;;;;;10.70;5.30;;;;;;;11.71;80.58;102232.81;5043590;28;20040;-87
2022/01/01 10:54:53;;;;;;;11.40;5.32;;;;;;;11.76;80.85;102231.88;5028131;28;20636;-86
2022/01/01 10:57:23;;;;;;;11.52;5.30;;;;;;;11.82;80.31;102228.34;5045367;28;20036;-87
2022/01/01 10:59:50;;;;;;;9.57;5.28;;;;;;;11.85;79.65;102223.13;5044681;28;20751;-86
2022/01/01 11:02:15;;;;;;;10.98;5.40;;;;;;;11.89;81.01;102211.78;5045631;28;20369;-87
2022/01/01 11:04:41;;;;;;;12.85;5.30;;;;;;;11.91;80.04;102217.88;5043887;28;20036;-87
2022/01/01 11:07:08;;;;;;;10.77;5.18;;;;;;;11.93;79.86;102218.72;5044435;28;20113;-87
2022/01/01 11:09:33;;;;;;;12.52;5.40;;;;;;;11.95;80.24;102219.56;5045742;28;20025;-87
2022/01/01 11:12:03;;;;;;;7.68;4.50;;;;;;;11.96;79.68;102208.22;5045189;28;20106;-86
2022/01/01 11:14:31;;;;;;;10.98;4.90;;;;;;;11.95;79.96;102203.03;5044604;28;20033;-87
2022/01/01 11:16:58;;;;;;;11.07;4.88;;;;;;;11.96;80.11;102203.03;5044166;28;20119;-86
2022/01/01 11:19:24;;;;;;;14.02;4.72;;;;;;;11.98;79.19;102213.47;5044748;28;20029;-87
2022/01/01 11:21:51;;;;;;;12.52;5.07;;;;;;;11.98;79.20;102214.34;5042104;28;20025;-87